Time;durP1;ratioP1;P1;durP2;ratioP2;P2;SDS_P1;SDS_P2;PMS_P1;PMS_P2;Temp;Humidity;BMP_temperature;BMP_pressure;BME280_temperature;BME280_humidity;BME280_pressure;Samples;Min_cycle;Max_cycle;Signal;HPM_P1;HPM_P2
2023/03/09 00:01:06;;;;;;;;;9.50;8.50;;;;;10.84;61.45;100738.66;146621;574;45021;-71
2023/03/09 00:04:08;;;;;;;;;12.00;10.00;;;;;10.77;61.71;100746.94;146616;572;45919;-70
2023/03/09 00:07:30;;;;;;;;;20.25;18.25;;;;;10.77;61.77;100745.25;146615;632;46010;-71
2023/03/09 00:10:35;;;;;;;;;16.75;13.25;;;;;10.71;61.86;100749.22;146607;604;46012;-71
2023/03/09 00:13:33;;;;;;;;;13.75;8.50;;;;;10.66;62.40;100736.03;146613;599;46010;-70
2023/03/09 00:16:46;;;;;;;;;12.75;10.75;;;;;9.60;60.88;100559.56;146617;645;45915;-70
2023/03/09 00:19:51;;;;;;;;;15.25;13.25;;;;;10.53;62.75;100731.03;146620;606;45020;-70
2023/03/09 00:23:08;;;;;;;;;13.50;12.00;;;;;10.46;62.58;100719.44;146615;589;45915;-71
2023/03/09 00:26:21;;;;;;;;;13.50;13.25;;;;;10.43;62.86;100721.87;146622;580;45021;-72
2023/03/09 00:29:40;;;;;;;;;12.25;11.00;;;;;9.32;62.17;100528.75;146615;582;45917;-72
2023/03/09 00:33:05;;;;;;;;;13.00;11.25;;;;;10.40;61.29;100713.94;146619;570;45021;-68
2023/03/09 00:36:04;;;;;;;;;13.75;13.75;;;;;10.50;62.54;100723.09;146611;652;46012;-70
2023/03/09 00:39:07;;;;;;;;;10.25;9.25;;;;;10.54;62.33;100718.16;146618;573;45021;-70
2023/03/09 00:42:15;;;;;;;;;21.50;17.75;;;;;10.56;62.39;100721.72;146618;632;45016;-69
2023/03/09 00:45:15;;;;;;;;;12.00;11.75;;;;;10.58;62.02;100721.78;146620;597;45025;-68
2023/03/09 00:48:27;;;;;;;;;9.00;7.00;;;;;10.58;62.59;100722.66;146616;593;45017;-69
2023/03/09 00:51:37;;;;;;;;;11.50;11.25;;;;;10.51;61.58;100723.19;146625;563;45020;-69
2023/03/09 00:54:53;;;;;;;;;11.75;10.75;;;;;10.43;62.76;100713.22;146614;593;45918;-69
2023/03/09 00:58:02;;;;;;;;;5.50;4.00;;;;;10.34;63.24;100716.22;146619;762;45020;-69
2023/03/09 01:01:01;;;;;;;;;11.00;10.75;;;;;10.21;63.29;100717.25;146618;579;45913;-69
2023/03/09 01:04:11;;;;;;;;;12.50;11.00;;;;;10.16;63.19;100726.50;146619;631;45024;-68
2023/03/09 01:07:10;;;;;;;;;10.75;10.75;;;;;10.12;63.75;100722.88;146613;598;45919;-72
2023/03/09 01:10:10;;;;;;;;;15.50;13.75;;;;;10.11;64.33;100721.06;146621;632;45021;-72
2023/03/09 01:13:29;;;;;;;;;11.75;11.00;;;;;10.08;63.73;100717.44;146612;601;45915;-71
2023/03/09 01:16:23;;;;;;;;;13.50;10.75;;;;;10.04;63.78;100716.38;146620;593;45021;-70
2023/03/09 01:19:42;;;;;;;;;13.00;9.50;;;;;10.01;63.81;100713.62;146617;615;45027;-70
2023/03/09 01:23:04;;;;;;;;;13.75;12.75;;;;;9.92;64.18;100710.53;146622;606;45020;-69
2023/03/09 01:26:13;;;;;;;;;;;;;;;;;;;;;
2023/03/09 01:29:07;;;;;;;;;13.25;12.00;;;;;9.77;64.75;100697.66;146618;612;45020;-69
2023/03/09 01:32:20;;;;;;;;;;;;;;;;;;;;;
2023/03/09 01:35:31;;;;;;;;;11.25;10.00;;;;;9.70;65.05;100686.06;146619;603;46010;-70
2023/03/09 01:38:47;;;;;;;;;11.00;8.50;;;;;9.61;64.80;100685.56;146616;573;45017;-70
2023/03/09 01:42:05;;;;;;;;;;;;;;;;;;;;;
2023/03/09 01:45:54;;;;;;;;;8.75;7.00;;;;;9.47;65.79;100684.84;146614;569;45915;-67
2023/03/09 01:49:21;;;;;;;;;9.75;8.75;;;;;8.32;66.54;100496.53;146622;637;45021;-67
2023/03/09 01:52:50;;;;;;;;;;;;;;;;;;;;;
2023/03/09 01:56:18;;;;;;;;;4.50;3.00;;;;;9.34;66.63;100673.72;146625;592;45023;-67
2023/03/09 01:59:22;;;;;;;;;4.50;3.25;;;;;9.40;66.17;100662.00;146619;592;45915;-68
2023/03/09 02:02:51;;;;;;;;;4.75;2.75;;;;;8.38;64.67;100476.22;146623;632;45021;-67
2023/03/09 02:06:34;;;;;;;;;10.00;6.50;;;;;9.61;64.27;100664.88;146616;597;45016;-67
2023/03/09 02:10:25;;;;;;;;;6.75;4.75;;;;;9.73;63.01;100668.94;146622;606;45021;-67
2023/03/09 02:13:35;;;;;;;;;;;;;;;;;;;;;
2023/03/09 02:16:45;;;;;;;;;5.50;5.50;;;;;9.76;63.97;100661.34;146621;668;45038;-69
2023/03/09 02:20:29;;;;;;;;;6.00;5.50;;;;;9.70;63.77;100651.53;146614;634;45917;-70
2023/03/09 02:24:00;;;;;;;;;7.00;6.00;;;;;9.67;64.56;100652.25;146617;614;45021;-69
2023/03/09 02:27:57;;;;;;;;;;;;;;;;;;;;;
2023/03/09 02:31:04;;;;;;;;;7.25;5.50;;;;;9.66;65.86;100666.03;146621;604;45022;-70
2023/03/09 02:34:12;;;;;;;;;5.25;3.75;;;;;7.61;63.71;100305.75;146616;569;45016;-70
2023/03/09 02:38:07;;;;;;;;;;;;;;;;;;;;;
2023/03/09 02:41:28;;;;;;;;;3.75;1.75;;;;;9.67;64.76;100670.38;146616;576;45944;-70
2023/03/09 02:44:43;;;;;;;;;4.00;2.00;;;;;8.60;63.48;100490.31;146620;661;45022;-69
2023/03/09 02:47:50;;;;;;;;;4.75;3.00;;;;;9.66;64.38;100667.72;146616;605;46012;-70
2023/03/09 02:50:50;;;;;;;;;5.50;2.50;;;;;9.66;64.03;100684.13;146620;573;45020;-68
2023/03/09 02:54:02;;;;;;;;;6.00;3.50;;;;;8.60;63.81;100491.22;146615;600;45917;-69
2023/03/09 02:57:18;;;;;;;;;8.50;6.25;;;;;9.81;63.74;100685.75;146618;600;45020;-70
2023/03/09 03:00:36;;;;;;;;;6.00;3.75;;;;;9.90;63.47;100694.91;146616;571;45034;-68
2023/03/09 03:03:49;;;;;;;;;8.50;6.50;;;;;9.98;63.23;100686.66;146621;574;45020;-69
2023/03/09 03:06:54;;;;;;;;;7.25;6.25;;;;;8.02;62.71;100341.63;146616;590;45917;-70
2023/03/09 03:09:51;;;;;;;;;7.00;6.25;;;;;9.98;63.88;100699.62;146621;591;45050;-72
2023/03/09 03:13:02;;;;;;;;;9.00;6.25;;;;;9.91;64.06;100698.41;146615;565;46012;-71
2023/03/09 03:16:25;;;;;;;;;7.00;6.75;;;;;9.89;63.97;100689.66;146622;564;45021;-71
2023/03/09 03:19:37;;;;;;;;;6.75;6.75;;;;;9.85;62.90;100698.09;146617;569;46917;-71
2023/03/09 03:22:35;;;;;;;;;8.25;4.00;;;;;9.82;63.88;100692.72;146623;711;45021;-70
2023/03/09 03:25:37;;;;;;;;;5.25;3.00;;;;;9.72;64.56;100699.13;146619;566;45918;-72
2023/03/09 03:28:41;;;;;;;;;6.25;4.75;;;;;9.58;65.06;100697.47;146620;589;45020;-72
2023/03/09 03:31:43;;;;;;;;;5.25;3.75;;;;;9.48;64.77;100699.56;146617;583;45017;-74
2023/03/09 03:34:36;;;;;;;;;4.50;4.50;;;;;9.47;64.82;100708.13;146626;563;45020;-74
2023/03/09 03:37:51;;;;;;;;;3.50;3.00;;;;;9.42;64.86;100700.91;146617;579;45017;-74
2023/03/09 03:40:45;;;;;;;;;6.50;4.25;;;;;9.37;65.61;100704.94;146624;577;45020;-72
2023/03/09 03:43:49;;;;;;;;;4.00;4.00;;;;;9.36;65.04;100703.16;146614;577;45918;-73
2023/03/09 03:46:55;;;;;;;;;6.25;4.25;;;;;9.36;65.74;100701.47;146622;611;45021;-74
2023/03/09 03:49:54;;;;;;;;;4.00;3.00;;;;;9.35;64.90;100696.22;146619;615;45016;-74
2023/03/09 03:53:09;;;;;;;;;3.50;3.00;;;;;9.24;65.48;100695.59;146622;572;45021;-74
2023/03/09 03:56:04;;;;;;;;;4.75;3.00;;;;;9.18;66.71;100703.91;146616;609;45016;-74
2023/03/09 03:59:04;;;;;;;;;3.25;3.00;;;;;9.06;67.00;100705.78;146625;651;45020;-76
2023/03/09 04:01:56;;;;;;;;;3.00;3.00;;;;;8.99;67.34;100704.56;146616;595;45917;-74
2023/03/09 04:05:09;;;;;;;;;3.50;3.00;;;;;7.85;67.51;100515.34;146623;582;45020;-73
2023/03/09 04:08:10;;;;;;;;;2.50;2.50;;;;;8.99;67.45;100707.13;146617;671;45017;-73
2023/03/09 04:11:19;;;;;;;;;;;;;;;;;;;;;
2023/03/09 04:14:40;;;;;;;;;2.75;2.75;;;;;9.11;66.80;100701.78;146617;618;45917;-72
2023/03/09 04:17:53;;;;;;;;;3.25;3.00;;;;;9.17;66.17;100691.78;146620;589;45020;-73
2023/03/09 04:20:49;;;;;;;;;4.50;3.50;;;;;9.22;66.61;100689.44;146614;640;45016;-73
2023/03/09 04:23:44;;;;;;;;;6.00;3.25;;;;;9.23;66.44;100689.53;146621;583;45021;-72
2023/03/09 04:26:46;;;;;;;;;3.00;3.00;;;;;9.22;66.47;100685.19;146614;613;45914;-72
2023/03/09 04:29:50;;;;;;;;;6.25;3.75;;;;;9.20;66.41;100686.78;146617;580;46020;-72
2023/03/09 04:32:53;;;;;;;;;3.75;3.75;;;;;9.19;66.43;100689.25;146616;584;46914;-73
2023/03/09 04:35:59;;;;;;;;;6.25;5.50;;;;;9.14;66.30;100685.56;146618;568;46010;-72
2023/03/09 04:39:04;;;;;;;;;4.25;4.25;;;;;9.11;66.97;100693.12;146615;570;45919;-72
2023/03/09 04:42:15;;;;;;;;;;;;;;;;;;;;;
2023/03/09 04:45:28;;;;;;;;;3.00;2.75;;;;;9.04;66.75;100693.59;146617;653;45018;-72
2023/03/09 04:48:39;;;;;;;;;8.00;4.75;;;;;9.00;66.37;100703.78;146621;694;45020;-71
2023/03/09 04:51:40;;;;;;;;;4.50;3.25;;;;;8.98;67.09;100705.37;146617;615;45021;-71
2023/03/09 04:54:59;;;;;;;;;3.00;1.75;;;;;9.00;66.84;100705.44;146620;570;45020;-70
2023/03/09 04:58:01;;;;;;;;;4.50;2.75;;;;;8.97;66.95;100690.66;146615;575;45915;-73
2023/03/09 05:01:00;;;;;;;;;6.75;5.25;;;;;8.96;67.69;100703.50;146619;570;45021;-73
2023/03/09 05:04:04;;;;;;;;;5.50;4.50;;;;;8.96;66.94;100704.38;146616;635;45016;-73
2023/03/09 05:07:13;;;;;;;;;4.00;3.50;;;;;8.98;67.54;100701.91;146620;597;45021;-72
2023/03/09 05:10:16;;;;;;;;;7.50;5.25;;;;;8.99;67.49;100714.00;146615;595;45914;-72
2023/03/09 05:13:18;;;;;;;;;4.00;4.00;;;;;9.02;67.17;100715.06;146620;610;45020;-69
2023/03/09 05:16:18;;;;;;;;;6.50;6.25;;;;;8.12;67.23;100548.72;146616;569;45915;-69
2023/03/09 05:19:38;;;;;;;;;7.25;6.25;;;;;7.61;67.43;100461.47;146620;608;45020;-69
2023/03/09 05:22:34;;;;;;;;;3.75;3.75;;;;;9.20;68.08;100720.41;146616;574;45032;-68
2023/03/09 05:25:38;;;;;;;;;6.25;5.75;;;;;9.70;67.54;100727.50;146620;570;45020;-68
2023/03/09 05:28:59;;;;;;;;;6.25;6.25;;;;;8.45;64.98;100376.69;146615;571;46017;-70
2023/03/09 05:32:16;;;;;;;;;6.25;6.00;;;;;10.13;62.45;100565.72;146618;670;46012;-66
2023/03/09 05:35:40;;;;;;;;;5.50;5.50;;;;;11.60;61.37;100746.72;146616;566;45017;-69
2023/03/09 05:38:45;;;;;;;;;5.00;5.00;;;;;12.01;60.26;100742.56;146621;611;45021;-67
2023/03/09 05:42:01;;;;;;;;;5.50;5.00;;;;;12.61;59.05;100742.63;146614;726;47012;-71
2023/03/09 05:45:16;;;;;;;;;6.00;4.25;;;;;13.37;58.22;100738.06;146622;601;45021;-68
2023/03/09 05:48:10;;;;;;;;;7.75;7.75;;;;;13.96;54.88;100730.78;146614;586;46012;-69
2023/03/09 05:51:31;;;;;;;;;10.25;10.00;;;;;14.45;54.57;100731.66;146619;615;46011;-69
2023/03/09 05:54:41;;;;;;;;;11.00;10.25;;;;;15.10;55.20;100733.06;146610;564;45913;-68
2023/03/09 05:57:51;;;;;;;;;8.25;8.25;;;;;15.81;52.32;100737.94;146615;612;45021;-68
2023/03/09 06:00:56;;;;;;;;;11.75;10.75;;;;;16.47;50.09;100735.50;146617;586;45016;-69
2023/03/09 06:04:08;;;;;;;;;9.25;9.25;;;;;16.79;50.86;100743.34;146617;597;45020;-69
2023/03/09 06:07:02;;;;;;;;;10.25;10.00;;;;;17.07;49.24;100737.09;146616;642;45915;-68
2023/03/09 06:10:26;;;;;;;;;9.75;9.75;;;;;16.77;47.59;100646.44;146614;582;45020;-69
2023/03/09 06:13:36;;;;;;;;;12.50;11.50;;;;;17.30;47.21;100735.94;146616;633;45915;-68
2023/03/09 06:16:32;;;;;;;;;18.25;16.00;;;;;17.21;46.65;100729.59;146620;710;45020;-69
2023/03/09 06:19:37;;;;;;;;;17.50;16.00;;;;;17.08;46.35;100737.16;146618;585;45016;-69
2023/03/09 06:22:45;;;;;;;;;15.75;14.50;;;;;16.90;47.90;100736.69;146621;575;45021;-69
2023/03/09 06:26:06;;;;;;;;;13.00;10.50;;;;;16.72;46.99;100729.19;146616;595;46014;-69
2023/03/09 06:29:04;;;;;;;;;8.50;7.00;;;;;16.54;46.75;100727.00;146622;657;45021;-69
2023/03/09 06:32:17;;;;;;;;;11.75;10.25;;;;;14.55;48.98;100405.06;146621;580;45916;-70
2023/03/09 06:35:21;;;;;;;;;11.25;8.50;;;;;16.36;49.13;100729.97;146618;575;46010;-70
2023/03/09 06:38:28;;;;;;;;;11.00;8.50;;;;;16.47;49.04;100732.88;146619;607;45016;-68
2023/03/09 06:41:48;;;;;;;;;11.50;10.00;;;;;16.66;49.37;100725.53;146625;607;45020;-69
2023/03/09 06:44:44;;;;;;;;;9.50;9.50;;;;;16.76;48.09;100727.56;146711;564;45023;-73
2023/03/09 06:47:54;;;;;;;;;;;;;;;;;;;;;
2023/03/09 06:50:52;;;;;;;;;14.00;11.25;;;;;16.72;48.31;100751.87;146624;577;45023;-71
2023/03/09 06:53:53;;;;;;;;;11.50;11.25;;;;;16.81;47.86;100762.63;146620;581;45868;-72
2023/03/09 06:57:00;;;;;;;;;11.75;10.00;;;;;16.95;48.03;100752.53;146624;625;45020;-72
2023/03/09 06:59:41;;;;;;;;;12.00;11.00;;;;;17.09;46.91;100743.25;146707;564;45022;-71
2023/03/09 07:02:58;;;;;;;;;17.50;11.25;;;;;17.29;48.88;100749.91;146624;628;45016;-71
2023/03/09 07:06:02;;;;;;;;;12.75;11.00;;;;;17.42;47.69;100743.22;146623;609;45020;-70
2023/03/09 07:08:56;;;;;;;;;12.00;9.50;;;;;17.49;46.94;100745.13;146621;598;45023;-71
2023/03/09 07:12:00;;;;;;;;;13.75;12.75;;;;;17.52;47.35;100739.06;146625;579;45021;-69
2023/03/09 07:15:16;;;;;;;;;14.50;11.75;;;;;17.47;48.92;100744.19;146620;606;45915;-70
2023/03/09 07:18:08;;;;;;;;;11.25;11.25;;;;;17.41;48.02;100741.41;146628;597;46010;-72
2023/03/09 07:21:19;;;;;;;;;14.00;13.00;;;;;17.29;48.09;100738.53;146622;569;45879;-70
2023/03/09 07:24:33;;;;;;;;;;;;;;;;;;;;;
2023/03/09 07:27:54;;;;;;;;;19.50;17.00;;;;;17.18;49.37;100732.13;146623;604;46012;-72
2023/03/09 07:30:51;;;;;;;;;8.00;8.00;;;;;17.19;47.23;100736.50;146628;604;45022;-72
2023/03/09 07:33:59;;;;;;;;;6.00;6.00;;;;;17.11;47.47;100746.81;146623;679;45917;-78
2023/03/09 07:37:01;;;;;;;;;7.25;4.75;;;;;17.02;48.05;100746.59;146626;681;46010;-75
2023/03/09 07:39:58;;;;;;;;;6.25;5.25;;;;;17.01;48.08;100735.22;146621;614;46012;-76
2023/03/09 07:43:20;;;;;;;;;6.25;6.25;;;;;16.03;49.86;100559.91;146624;564;46010;-76
2023/03/09 07:46:40;;;;;;;;;7.50;7.25;;;;;17.19;47.83;100745.25;146621;569;46012;-76
2023/03/09 07:49:57;;;;;;;;;6.00;5.00;;;;;17.30;48.63;100740.28;146628;674;45021;-77
2023/03/09 07:53:23;;;;;;;;;6.75;6.75;;;;;17.41;48.40;100741.41;146624;684;45016;-75
2023/03/09 07:56:19;;;;;;;;;5.25;5.25;;;;;17.46;47.78;100736.28;146627;588;45021;-76
2023/03/09 07:59:30;;;;;;;;;9.50;8.00;;;;;17.50;47.65;100725.91;146621;605;45914;-76
2023/03/09 08:02:36;;;;;;;;;7.75;7.75;;;;;17.69;47.94;100737.69;146628;703;46021;-75
2023/03/09 08:05:36;;;;;;;;;7.50;6.00;;;;;17.80;46.90;100731.84;146620;715;46012;-76
2023/03/09 08:08:31;;;;;;;;;7.50;6.00;;;;;17.91;46.24;100723.38;146626;566;45021;-76
2023/03/09 08:11:43;;;;;;;;;4.00;4.00;;;;;17.98;46.54;100727.88;146623;600;45017;-75
2023/03/09 08:14:42;;;;;;;;;8.00;5.33;;;;;18.02;45.66;100722.72;146628;563;45020;-76
2023/03/09 08:17:54;;;;;;;;;5.33;5.33;;;;;18.05;45.97;100718.41;146624;617;45915;-76
2023/03/09 08:20:55;;;;;;;;;5.00;4.00;;;;;18.06;46.78;100719.28;146624;642;45020;-75
2023/03/09 08:23:55;;;;;;;;;7.00;5.00;;;;;18.06;45.63;100719.28;146625;569;45021;-75
2023/03/09 08:27:01;;;;;;;;;5.67;5.67;;;;;18.08;45.82;100709.72;146627;594;46010;-77
2023/03/09 08:30:15;;;;;;;;;8.00;6.75;;;;;18.08;45.42;100705.34;146622;563;45916;-74
2023/03/09 08:33:27;;;;;;;;;4.67;3.67;;;;;18.11;45.04;100713.28;146629;564;45021;-66
2023/03/09 08:36:38;;;;;;;;;5.00;4.00;;;;;18.22;46.05;100711.78;146620;593;45912;-66
2023/03/09 08:39:39;;;;;;;;;4.00;3.00;;;;;18.31;44.95;100708.41;146628;655;45021;-69
2023/03/09 08:42:41;;;;;;;;;3.00;3.00;;;;;18.40;45.99;100705.97;146623;624;45016;-67
2023/03/09 08:45:47;;;;;;;;;0.00;0.00;;;;;18.63;45.17;100710.78;146629;571;45021;-69
2023/03/09 08:48:44;;;;;;;;;4.00;4.00;;;;;18.70;43.42;100705.66;146622;569;45918;-68
2023/03/09 08:51:40;;;;;;;;;3.00;3.00;;;;;18.77;43.48;100717.19;146627;595;45020;-69
2023/03/09 08:55:19;;;;;;;;;;;;;;;;;;;;;
2023/03/09 08:58:47;;;;;;;;;2.67;2.67;;;;;18.79;45.13;100710.22;146630;661;45020;-69
2023/03/09 09:02:04;;;;;;;;;2.00;2.00;;;;;17.92;45.03;100549.37;146633;571;45914;-70
2023/03/09 09:05:19;;;;;;;;;1.00;1.00;;;;;18.81;44.79;100705.88;146630;573;46010;-70
2023/03/09 09:08:28;;;;;;;;;1.67;1.67;;;;;18.82;43.21;100714.66;146629;566;45914;-69
2023/03/09 09:11:51;;;;;;;;;1.00;0.67;;;;;18.95;41.83;100708.75;146629;638;46020;-69
2023/03/09 09:14:47;;;;;;;;;2.00;2.00;;;;;19.20;42.26;100711.78;146629;579;45021;-69
2023/03/09 09:17:58;;;;;;;;;2.00;1.00;;;;;19.42;41.64;100713.88;146633;584;45021;-68
2023/03/09 09:20:58;;;;;;;;;2.00;2.00;;;;;19.67;43.23;100704.63;146631;564;45021;-71
2023/03/09 09:24:09;;;;;;;;;0.00;0.00;;;;;19.91;40.73;100708.47;146635;587;45021;-69
2023/03/09 09:27:07;;;;;;;;;1.00;1.00;;;;;20.06;41.40;100700.72;146630;632;46012;-69
2023/03/09 09:30:16;;;;;;;;;1.67;1.67;;;;;20.27;40.37;100715.91;146632;590;45021;-69
2023/03/09 09:33:39;;;;;;;;;2.67;1.00;;;;;19.40;39.70;100528.91;146626;597;45917;-69
2023/03/09 09:36:40;;;;;;;;;0.00;0.00;;;;;20.51;39.06;100712.66;146632;587;45020;-69
2023/03/09 09:39:51;;;;;;;;;0.67;0.67;;;;;20.54;40.68;100718.00;146626;589;45017;-69
2023/03/09 09:42:49;;;;;;;;;2.33;2.33;;;;;20.61;39.67;100718.94;146635;584;45030;-69
2023/03/09 09:45:43;;;;;;;;;3.00;2.00;;;;;20.68;38.62;100715.50;146631;569;45017;-70
2023/03/09 09:49:11;;;;;;;;;;;;;;;;;;;;;
2023/03/09 09:52:52;;;;;;;;;1.00;1.00;;;;;20.24;43.10;100568.44;146626;639;45916;-69
2023/03/09 09:56:04;;;;;;;;;1.00;1.00;;;;;21.40;39.06;100703.84;146631;588;45020;-69
2023/03/09 09:59:12;;;;;;;;;1.00;1.00;;;;;21.74;41.32;100695.22;146625;595;46012;-69
2023/03/09 10:02:42;;;;;;;;;2.00;1.00;;;;;22.05;41.55;100683.03;146627;564;45021;-69
2023/03/09 10:06:31;;;;;;;;;1.00;1.00;;;;;22.26;41.30;100683.16;146623;618;45916;-69
2023/03/09 10:10:01;;;;;;;;;1.00;1.00;;;;;22.37;39.59;100670.84;146628;569;45023;-70
2023/03/09 10:13:12;;;;;;;;;0.00;0.00;;;;;22.44;37.22;100666.47;146625;565;45911;-69
2023/03/09 10:16:23;;;;;;;;;0.00;0.00;;;;;22.53;35.44;100662.97;146627;575;45021;-69
2023/03/09 10:19:48;;;;;;;;;1.00;1.00;;;;;21.73;37.95;100509.59;146620;592;45914;-69
2023/03/09 10:22:56;;;;;;;;;2.00;2.00;;;;;22.61;38.02;100661.19;146627;595;45022;-69
2023/03/09 10:26:06;;;;;;;;;3.00;3.00;;;;;21.91;40.49;100520.22;146622;598;45915;-69
2023/03/09 10:29:36;;;;;;;;;3.00;3.00;;;;;22.99;37.86;100660.34;146627;601;45020;-69
2023/03/09 10:33:00;;;;;;;;;4.00;3.00;;;;;23.02;40.79;100652.41;146620;577;45918;-69
2023/03/09 10:36:44;;;;;;;;;1.33;1.00;;;;;21.31;41.55;100374.09;146627;581;45022;-71
2023/03/09 10:39:52;;;;;;;;;1.33;1.33;;;;;22.71;38.87;100631.25;146621;586;45912;-71
2023/03/09 10:42:46;;;;;;;;;0.67;0.00;;;;;22.68;36.26;100622.41;146628;597;45020;-70
2023/03/09 10:45:50;;;;;;;;;2.00;1.00;;;;;22.67;36.15;100623.31;146620;614;45914;-70
2023/03/09 10:48:52;;;;;;;;;2.00;1.00;;;;;22.64;37.06;100620.66;146625;575;45020;-78
2023/03/09 10:52:21;;;;;;;;;1.00;1.00;;;;;21.85;37.44;100469.16;146620;638;46013;-72
2023/03/09 10:55:42;;;;;;;;;3.33;3.33;;;;;22.55;39.65;100585.47;146628;563;45020;-70
2023/03/09 10:59:35;;;;;;;;;2.00;2.00;;;;;21.37;39.08;100375.84;146622;587;46015;-69
2023/03/09 11:03:11;;;;;;;;;2.00;2.00;;;;;22.73;39.22;100573.09;146627;627;45023;-68
2023/03/09 11:06:37;;;;;;;;;0.00;0.00;;;;;23.00;39.42;100561.63;146619;588;45914;-68
2023/03/09 11:10:02;;;;;;;;;2.00;1.33;;;;;23.21;38.82;100556.28;146625;607;45020;-69
2023/03/09 11:13:25;;;;;;;;;1.67;1.00;;;;;23.51;38.21;100543.81;146623;587;45916;-69
2023/03/09 11:16:37;;;;;;;;;3.00;2.00;;;;;23.72;38.85;100538.44;146627;575;45021;-69
2023/03/09 11:19:41;;;;;;;;;0.33;0.00;;;;;23.87;37.71;100537.47;146623;594;45016;-68
2023/03/09 11:22:35;;;;;;;;;3.67;2.00;;;;;24.03;36.06;100532.09;146628;629;45029;-69
2023/03/09 11:26:25;;;;;;;;;;;;;;;;;;;;;
2023/03/09 11:30:36;;;;;;;;;1.33;1.33;;;;;22.77;38.45;100274.41;146627;668;45029;-69
2023/03/09 11:33:34;;;;;;;;;2.67;2.00;;;;;24.17;34.59;100516.94;146621;676;46016;-69
2023/03/09 11:36:56;;;;;;;;;3.33;2.33;;;;;24.15;37.38;100518.75;146626;610;45021;-70
2023/03/09 11:40:29;;;;;;;;;2.00;2.00;;;;;24.33;39.19;100521.25;146623;565;45916;-70
2023/03/09 11:44:18;;;;;;;;;1.00;1.00;;;;;23.67;39.30;100368.12;146625;582;45034;-70
2023/03/09 11:47:58;;;;;;;;;1.00;1.00;;;;;23.11;38.22;100241.59;146624;598;45917;-69
2023/03/09 11:51:19;;;;;;;;;1.67;1.67;;;;;24.69;38.59;100486.50;146628;592;45020;-70
2023/03/09 11:54:49;;;;;;;;;2.33;1.33;;;;;24.73;34.26;100472.31;146621;593;45019;-70
2023/03/09 11:58:04;;;;;;;;;5.00;4.00;;;;;24.60;34.71;100476.84;146625;594;45048;-69
2023/03/09 12:01:33;;;;;;;;;2.00;2.00;;;;;24.42;34.87;100462.91;146621;577;45917;-69
2023/03/09 12:04:47;;;;;;;;;2.00;2.00;;;;;24.36;35.86;100454.09;146628;638;45020;-69
2023/03/09 12:07:55;;;;;;;;;1.00;1.00;;;;;24.49;38.33;100454.91;146622;565;46014;-69
2023/03/09 12:11:34;;;;;;;;;1.67;1.67;;;;;24.68;37.64;100445.84;146627;573;46010;-70
2023/03/09 12:15:07;;;;;;;;;;;;;;;;;;;;;
2023/03/09 12:18:11;;;;;;;;;2.00;2.00;;;;;24.88;33.87;100430.56;146627;597;45020;-70
2023/03/09 12:21:43;;;;;;;;;3.00;1.33;;;;;24.73;36.60;100427.22;146623;667;45914;-70
2023/03/09 12:25:04;;;;;;;;;2.00;2.00;;;;;24.69;36.10;100430.81;146626;580;46010;-70
2023/03/09 12:28:45;;;;;;;;;5.00;5.00;;;;;24.59;37.27;100414.13;146623;574;45017;-70
2023/03/09 12:32:16;;;;;;;;;3.00;3.00;;;;;24.23;38.33;100391.50;146627;593;45020;-70
2023/03/09 12:35:46;;;;;;;;;7.00;4.67;;;;;24.21;38.81;100402.13;146622;564;45916;-69
2023/03/09 12:38:54;;;;;;;;;6.67;5.00;;;;;24.22;36.73;100401.25;146626;563;45020;-68
2023/03/09 12:42:30;;;;;;;;;6.00;5.33;;;;;24.13;39.67;100403.97;146621;592;46914;-68
2023/03/09 12:45:49;;;;;;;;;7.33;7.00;;;;;23.94;39.33;100393.53;146627;612;45029;-69
2023/03/09 12:48:55;;;;;;;;;7.33;7.33;;;;;23.67;39.02;100391.09;146621;589;45914;-68
2023/03/09 12:52:30;;;;;;;;;;;;;;;;;;;;;
2023/03/09 12:56:05;;;;;;;;;;;;;;;;;;;;;
2023/03/09 12:59:38;;;;;;;;;4.33;4.00;;;;;22.91;40.91;100374.78;146627;689;45021;-72
2023/03/09 13:02:52;;;;;;;;;6.00;5.00;;;;;21.12;40.97;100120.09;146619;576;45914;-70
2023/03/09 13:06:03;;;;;;;;;7.00;4.67;;;;;22.37;40.49;100374.12;146625;581;45021;-70
2023/03/09 13:09:27;;;;;;;;;;;;;;;;;;;;;
2023/03/09 13:12:42;;;;;;;;;3.33;3.33;;;;;21.16;41.89;100218.50;146623;615;45022;-70
2023/03/09 13:16:11;;;;;;;;;;;;;;;;;;;;;
2023/03/09 13:19:46;;;;;;;;;4.33;3.33;;;;;22.08;40.77;100367.06;146625;624;45020;-69
2023/03/09 13:22:49;;;;;;;;;3.00;3.00;;;;;22.10;38.78;100362.69;146621;571;45913;-69
2023/03/09 13:26:13;;;;;;;;;4.33;4.33;;;;;21.99;39.43;100361.78;146625;625;45020;-70
2023/03/09 13:29:29;;;;;;;;;4.00;4.00;;;;;20.90;39.16;100203.56;146624;685;45912;-69
2023/03/09 13:33:35;;;;;;;;;;;;;;;;;;;;;
2023/03/09 13:36:42;;;;;;;;;3.00;2.33;;;;;21.89;39.05;100360.94;146624;646;45016;-69
2023/03/09 13:40:28;;;;;;;;;2.00;2.00;;;;;21.88;40.64;100359.19;146625;595;45020;-69
2023/03/09 13:43:41;;;;;;;;;2.67;2.67;;;;;21.82;38.60;100346.00;146621;576;45916;-68
2023/03/09 13:46:59;;;;;;;;;3.00;3.00;;;;;20.89;38.59;100203.53;146625;636;45020;-70
2023/03/09 13:50:10;;;;;;;;;2.00;2.00;;;;;21.68;38.70;100348.66;146618;593;47012;-69
2023/03/09 13:53:46;;;;;;;;;3.00;2.00;;;;;21.35;37.73;100295.84;146624;582;45020;-70
2023/03/09 13:56:46;;;;;;;;;5.67;5.67;;;;;21.68;39.50;100342.47;146623;589;45912;-69
2023/03/09 14:00:00;;;;;;;;;4.67;4.00;;;;;21.73;39.82;100342.47;146624;603;46012;-70
2023/03/09 14:03:11;;;;;;;;;3.33;3.33;;;;;20.08;38.76;100069.94;146622;570;45867;-69
2023/03/09 14:06:29;;;;;;;;;3.00;3.00;;;;;21.64;39.75;100349.50;146626;606;45021;-68
2023/03/09 14:10:16;;;;;;;;;;;;;;;;;;;;;
2023/03/09 14:13:55;;;;;;;;;3.33;2.67;;;;;20.73;39.06;100211.41;146625;586;45023;-68
2023/03/09 14:16:56;;;;;;;;;6.67;4.00;;;;;21.27;38.31;100343.28;146620;563;45021;-70
2023/03/09 14:20:40;;;;;;;;;4.00;3.00;;;;;20.01;38.46;100170.81;146622;611;45021;-69
2023/03/09 14:24:20;;;;;;;;;4.33;4.00;;;;;20.00;41.08;100187.47;146621;592;45913;-70
2023/03/09 14:27:49;;;;;;;;;1.67;1.67;;;;;20.76;40.43;100327.34;146626;653;45021;-69
2023/03/09 14:30:57;;;;;;;;;5.00;4.00;;;;;20.67;39.52;100332.59;146625;569;45911;-68
2023/03/09 14:34:38;;;;;;;;;5.00;4.00;;;;;20.04;39.12;100241.88;146625;605;45024;-69
2023/03/09 14:37:42;;;;;;;;;6.00;3.67;;;;;20.41;40.53;100324.56;146622;580;45911;-69
2023/03/09 14:40:51;;;;;;;;;8.25;4.75;;;;;20.36;40.03;100317.50;146625;621;45020;-69
2023/03/09 14:44:00;;;;;;;;;4.00;3.67;;;;;20.28;39.66;100312.22;146618;610;45913;-69
2023/03/09 14:47:36;;;;;;;;;4.00;4.00;;;;;19.32;41.62;100165.16;146622;573;47010;-69
2023/03/09 14:50:32;;;;;;;;;5.67;4.00;;;;;20.07;40.68;100318.22;146621;573;45913;-69
2023/03/09 14:53:44;;;;;;;;;4.75;4.50;;;;;19.02;41.10;100165.81;146624;665;45020;-69
2023/03/09 14:56:49;;;;;;;;;;;;;;;;;;;;;
2023/03/09 15:00:16;;;;;;;;;5.25;3.50;;;;;19.76;41.39;100319.78;146622;616;47008;-70
2023/03/09 15:03:28;;;;;;;;;8.00;6.25;;;;;19.70;41.56;100327.63;146621;641;45018;-69
2023/03/09 15:06:43;;;;;;;;;5.25;5.25;;;;;19.68;42.58;100327.59;146623;573;45021;-70
2023/03/09 15:09:56;;;;;;;;;8.00;7.00;;;;;19.67;42.57;100333.72;146622;578;45016;-69
2023/03/09 15:13:30;;;;;;;;;10.75;9.00;;;;;18.07;42.51;100063.41;146626;681;45021;-70
2023/03/09 15:16:24;;;;;;;;;6.00;6.00;;;;;19.69;42.94;100336.34;146620;682;45018;-69
2023/03/09 15:19:42;;;;;;;;;10.00;8.25;;;;;19.70;42.04;100332.88;146624;714;45021;-70
2023/03/09 15:22:54;;;;;;;;;8.50;8.25;;;;;19.71;43.17;100332.88;146620;565;45917;-69
2023/03/09 15:26:23;;;;;;;;;10.00;7.75;;;;;19.73;43.78;100336.41;146623;583;45021;-68
2023/03/09 15:29:45;;;;;;;;;8.50;7.50;;;;;19.79;43.59;100333.84;146621;712;45016;-68
2023/03/09 15:32:49;;;;;;;;;24.25;18.00;;;;;19.84;44.18;100328.59;146624;603;45022;-68
2023/03/09 15:36:08;;;;;;;;;17.25;14.75;;;;;19.85;44.87;100330.38;146614;698;45916;-68